Time;durP1;ratioP1;P1;durP2;ratioP2;P2;SDS_P1;SDS_P2;PMS_P1;PMS_P2;Temp;Humidity;BMP_temperature;BMP_pressure;BME280_temperature;BME280_humidity;BME280_pressure;Samples;Min_cycle;Max_cycle;Signal;HPM_P1;HPM_P2
2022/09/25 00:00:43;;;;;;;11.40;2.60;;;;;;;;;;5042192;28;20054;-65
2022/09/25 00:03:10;;;;;;;12.38;2.83;;;;;;;;;;5041580;28;20029;-65
2022/09/25 00:05:37;;;;;;;10.77;2.30;;;;;;;;;;5039723;28;20110;-65
2022/09/25 00:08:03;;;;;;;12.05;2.67;;;;;;;;;;5041780;28;20024;-65
2022/09/25 00:10:29;;;;;;;12.95;3.03;;;;;;;;;;5037705;28;20028;-65
2022/09/25 00:12:56;;;;;;;9.82;2.60;;;;;;;;;;5041286;28;20035;-65
2022/09/25 00:15:22;;;;;;;9.88;2.60;;;;;;;;;;5041301;28;20037;-65
2022/09/25 00:17:48;;;;;;;9.75;2.50;;;;;;;;;;5044909;28;20396;-65
2022/09/25 00:20:23;;;;;;;16.08;3.10;;;;;;;;;;5042569;28;20059;-65
2022/09/25 00:22:49;;;;;;;10.63;2.55;;;;;;;;;;5043668;28;20479;-66
2022/09/25 00:25:15;;;;;;;13.15;2.75;;;;;;;;;;5040763;28;20037;-65
2022/09/25 00:27:42;;;;;;;10.32;2.80;;;;;;;;;;5037331;28;20024;-65
2022/09/25 00:30:09;;;;;;;11.05;3.13;;;;;;;;;;5036110;28;20540;-66
2022/09/25 00:32:36;;;;;;;9.73;2.70;;;;;;;;;;5037399;28;20175;-65
2022/09/25 00:35:02;;;;;;;10.90;2.60;;;;;;;;;;5035848;28;20024;-65
2022/09/25 00:37:28;;;;;;;11.00;2.80;;;;;;;;;;5034951;28;20498;-65
2022/09/25 00:39:55;;;;;;;10.32;2.47;;;;;;;;;;5037631;28;20036;-65
2022/09/25 00:42:22;;;;;;;9.57;2.42;;;;;;;;;;5036913;28;20074;-65
2022/09/25 00:44:56;;;;;;;11.02;2.58;;;;;;;;;;5036790;28;20032;-66
2022/09/25 00:47:46;;;;;;;11.90;2.83;;;;;;;;;;5029644;28;20020;-65
2022/09/25 00:50:16;;;;;;;11.65;2.63;;;;;;;;;;5034261;28;20115;-65
2022/09/25 00:52:43;;;;;;;9.52;2.75;;;;;;;;;;5038000;28;20117;-65
2022/09/25 00:55:11;;;;;;;10.18;2.92;;;;;;;;;;5030244;28;20051;-65
2022/09/25 00:57:38;;;;;;;11.65;2.83;;;;;;;;;;5035135;28;20032;-65
2022/09/25 01:00:09;;;;;;;8.98;2.85;;;;;;;;;;5039507;28;20035;-65
2022/09/25 01:02:40;;;;;;;9.48;2.67;;;;;;;;;;5035898;28;20020;-65
2022/09/25 01:05:08;;;;;;;10.65;3.03;;;;;;;;;;5037953;28;20894;-64
2022/09/25 01:07:36;;;;;;;10.88;2.97;;;;;;;;;;5035315;28;20101;-65
2022/09/25 01:10:05;;;;;;;11.73;2.90;;;;;;;;;;5036948;28;20098;-65
2022/09/25 01:12:32;;;;;;;11.05;3.00;;;;;;;;;;5036286;28;20528;-65
2022/09/25 01:14:58;;;;;;;10.40;2.63;;;;;;;;;;5034897;28;20028;-65
2022/09/25 01:17:31;;;;;;;10.13;2.70;;;;;;;;;;5032221;28;20048;-65
2022/09/25 01:20:01;;;;;;;8.98;2.72;;;;;;;;;;5032808;28;20036;-65
2022/09/25 01:22:27;;;;;;;9.95;2.70;;;;;;;;;;5025687;28;20024;-65
2022/09/25 01:25:05;;;;;;;13.95;4.68;;;;;;;;;;5037061;28;20447;-66
2022/09/25 01:27:51;;;;;;;11.43;5.22;;;;;;;;;;5034846;28;20029;-65
2022/09/25 01:30:18;;;;;;;7.18;2.40;;;;;;;;;;5035564;28;20375;-67
2022/09/25 01:32:51;;;;;;;8.48;3.28;;;;;;;;;;5035918;28;20035;-67
2022/09/25 01:35:25;;;;;;;8.52;3.25;;;;;;;;;;5036467;28;20026;-67
2022/09/25 01:37:58;;;;;;;8.07;3.20;;;;;;;;;;5041215;28;20540;-67
2022/09/25 01:40:32;;;;;;;7.28;2.20;;;;;;;;;;5038766;28;20463;-67
2022/09/25 01:43:17;;;;;;;8.93;3.45;;;;;;;;;;5041598;28;20508;-67
2022/09/25 01:45:50;;;;;;;9.23;3.33;;;;;;;;;;5040629;28;20418;-67
2022/09/25 01:48:18;;;;;;;12.13;4.72;;;;;;;;;;5038402;28;21053;-67
2022/09/25 01:50:50;;;;;;;15.65;4.63;;;;;;;;;;5040591;28;20032;-67
2022/09/25 01:53:19;;;;;;;9.73;3.45;;;;;;;;;;5034880;28;20025;-67
2022/09/25 01:55:47;;;;;;;11.82;3.33;;;;;;;;;;5040644;28;20032;-67
2022/09/25 01:58:23;;;;;;;11.00;3.25;;;;;;;;;;5034818;28;20047;-67
2022/09/25 02:00:53;;;;;;;9.40;3.40;;;;;;;;;;5038291;28;20044;-68
2022/09/25 02:03:24;;;;;;;9.10;2.65;;;;;;;;;;5036396;28;20628;-67
2022/09/25 02:05:59;;;;;;;7.68;2.45;;;;;;;;;;5033019;28;20115;-66
2022/09/25 02:08:28;;;;;;;8.73;2.40;;;;;;;;;;5034692;28;20058;-68
2022/09/25 02:10:57;;;;;;;10.02;2.25;;;;;;;;;;5040838;28;20045;-66
2022/09/25 02:13:25;;;;;;;8.77;2.78;;;;;;;;;;5037030;28;20116;-68
2022/09/25 02:15:59;;;;;;;8.10;2.25;;;;;;;;;;5038329;28;20032;-67
2022/09/25 02:21:22;;;;;;;9.27;2.80;;;;;;;;;;5036841;28;20500;-68
2022/09/25 02:23:57;;;;;;;9.63;2.10;;;;;;;;;;5037948;28;20035;-67
2022/09/25 02:26:23;;;;;;;10.65;2.25;;;;;;;;;;5030962;28;20173;-67
2022/09/25 02:28:52;;;;;;;;;;;;;;;;;;5035839;28;20473;-67
2022/09/25 02:31:19;;;;;;;9.30;2.38;;;;;;;;;;5036200;28;19916;-67
2022/09/25 02:33:45;;;;;;;11.55;2.42;;;;;;;;;;5042084;28;20119;-67
2022/09/25 02:36:19;;;;;;;14.50;3.22;;;;;;;;;;5041129;28;20025;-67
2022/09/25 02:38:47;;;;;;;14.63;2.67;;;;;;;;;;5043029;28;20075;-67
2022/09/25 02:41:25;;;;;;;8.52;2.17;;;;;;;;;;5038940;28;20688;-67
2022/09/25 02:43:58;;;;;;;13.73;2.80;;;;;;;;;;5040493;28;20200;-67
2022/09/25 02:46:39;;;;;;;10.70;2.05;;;;;;;;;;5036470;28;20652;-67
2022/09/25 02:49:12;;;;;;;10.73;2.58;;;;;;;;;;5036718;28;20059;-67
2022/09/25 02:51:47;;;;;;;10.25;2.40;;;;;;;;;;5041015;28;20072;-67
2022/09/25 02:54:20;;;;;;;12.98;2.58;;;;;;;;;;5040551;28;21062;-67
2022/09/25 02:56:48;;;;;;;10.13;2.20;;;;;;;;;;5038099;28;20063;-67
2022/09/25 02:59:18;;;;;;;9.55;1.95;;;;;;;;;;5036178;28;20574;-67
2022/09/25 03:01:46;;;;;;;10.50;2.35;;;;;;;;;;5035745;28;20926;-68
2022/09/25 03:04:12;;;;;;;10.77;1.80;;;;;;;;;;5037424;28;20430;-67
2022/09/25 03:06:39;;;;;;;9.10;1.98;;;;;;;;;;5041333;28;20032;-67
2022/09/25 03:09:06;;;;;;;9.07;2.08;;;;;;;;;;5043949;28;20620;-67
2022/09/25 03:11:39;;;;;;;11.30;2.28;;;;;;;;;;5041637;28;20032;-67
2022/09/25 03:14:05;;;;;;;10.75;2.05;;;;;;;;;;5040443;28;20044;-67
2022/09/25 03:16:32;;;;;;;;;;;;;;;;;;5040817;28;20470;-66
2022/09/25 03:18:58;;;;;;;10.30;2.40;;;;;;;;;;5036995;28;20385;-67
2022/09/25 03:21:24;;;;;;;9.55;2.22;;;;;;;;;;5038957;28;20068;-66
2022/09/25 03:23:50;;;;;;;;;;;;;;;;;;5038030;28;20820;-66
2022/09/25 03:26:16;;;;;;;9.18;1.98;;;;;;;;;;5032501;28;19924;-65
2022/09/25 03:28:42;;;;;;;;;;;;;;;;;;5038957;28;20044;-66
2022/09/25 03:31:11;;;;;;;9.55;1.90;;;;;;;;;;5033155;28;19917;-67
2022/09/25 03:33:39;;;;;;;6.47;1.73;;;;;;;;;;5040745;28;20037;-66
2022/09/25 03:36:17;;;;;;;8.57;1.70;;;;;;;;;;5043502;28;20066;-66
2022/09/25 03:38:44;;;;;;;7.03;1.80;;;;;;;;;;5041974;28;20504;-67
2022/09/25 03:41:11;;;;;;;9.80;1.77;;;;;;;;;;5032217;28;20530;-67
2022/09/25 03:43:41;;;;;;;7.35;1.85;;;;;;;;;;5038508;28;20032;-66
2022/09/25 03:46:11;;;;;;;9.98;1.98;;;;;;;;;;5040106;28;20032;-67
2022/09/25 03:48:37;;;;;;;7.10;1.65;;;;;;;;;;5044239;28;20111;-66
2022/09/25 03:51:04;;;;;;;7.25;1.48;;;;;;;;;;5041781;28;20036;-66
2022/09/25 03:53:32;;;;;;;7.57;1.70;;;;;;;;;;5037930;28;20040;-66
2022/09/25 03:55:58;;;;;;;8.48;2.03;;;;;;;;;;5037479;28;20056;-66
2022/09/25 03:58:25;;;;;;;13.35;2.00;;;;;;;;;;5033804;28;20029;-67
2022/09/25 04:00:51;;;;;;;12.02;2.15;;;;;;;;;;5040196;28;20040;-66
2022/09/25 04:03:17;;;;;;;;;;;;;;;;;;5036193;28;20085;-67
2022/09/25 04:05:43;;;;;;;9.13;2.10;;;;;;;;;;5038567;28;19920;-67
2022/09/25 04:08:09;;;;;;;10.77;2.00;;;;;;;;;;5036499;28;20700;-67
2022/09/25 04:10:39;;;;;;;9.57;1.70;;;;;;;;;;5043692;28;20082;-66
2022/09/25 04:13:12;;;;;;;10.50;2.33;;;;;;;;;;5042570;28;20094;-66
2022/09/25 04:15:39;;;;;;;10.10;2.10;;;;;;;;;;5036938;28;20042;-66
2022/09/25 04:18:05;;;;;;;9.45;1.92;;;;;;;;;;5041067;28;20048;-66
2022/09/25 04:20:32;;;;;;;9.45;2.10;;;;;;;;;;5032259;28;20120;-66
2022/09/25 04:22:58;;;;;;;13.73;2.22;;;;;;;;;;5037472;28;20561;-66
2022/09/25 04:25:24;;;;;;;;;;;;;;;;;;5034915;28;20028;-66
2022/09/25 04:30:55;;;;;;;9.80;2.15;;;;;;;;;;5040956;28;20080;-66
2022/09/25 04:36:06;;;;;;;13.38;2.67;;;;;;;;;;5041704;28;20424;-67
2022/09/25 04:38:32;;;;;;;;;;;;;;;;;;5039066;28;20067;-67
2022/09/25 04:41:01;;;;;;;14.05;2.65;;;;;;;;;;5052709;28;20003;-66
2022/09/25 04:43:31;;;;;;;11.32;2.50;;;;;;;;;;5037888;28;20031;-66
2022/09/25 04:46:04;;;;;;;9.32;2.22;;;;;;;;;;5041252;28;20036;-66
2022/09/25 04:48:31;;;;;;;10.18;2.40;;;;;;;;;;5039645;28;20063;-66
2022/09/25 04:50:57;;;;;;;;;;;;;;;;;;5042060;28;20039;-69
2022/09/25 04:53:24;;;;;;;10.73;2.58;;;;;;;;;;5037751;28;19916;-66
2022/09/25 04:55:53;;;;;;;10.32;2.33;;;;;;;;;;5041025;28;20778;-66
2022/09/25 04:58:19;;;;;;;10.18;2.35;;;;;;;;;;5035169;28;20029;-67
2022/09/25 05:00:45;;;;;;;;;;;;;;;;;;5044062;28;20036;-66
2022/09/25 05:03:11;;;;;;;12.40;2.15;;;;;;;;;;5040661;28;20017;-67
2022/09/25 05:05:37;;;;;;;;;;;;;;;;;;5040749;28;20032;-66
2022/09/25 05:08:03;;;;;;;10.38;2.55;;;;;;;;;;5046135;28;19938;-66
2022/09/25 05:10:31;;;;;;;11.93;2.80;;;;;;;;;;5039704;28;20043;-66
2022/09/25 05:12:58;;;;;;;18.75;3.05;;;;;;;;;;5041468;28;20148;-66
2022/09/25 05:15:24;;;;;;;10.10;2.67;;;;;;;;;;5040351;28;20042;-66
2022/09/25 05:17:52;;;;;;;13.50;2.92;;;;;;;;;;5043668;28;20047;-66
2022/09/25 05:20:18;;;;;;;9.65;2.70;;;;;;;;;;5039746;28;20036;-66
2022/09/25 05:22:44;;;;;;;;;;;;;;;;;;5044742;28;20466;-66
2022/09/25 05:25:10;;;;;;;13.20;2.97;;;;;;;;;;5040253;28;19937;-66
2022/09/25 05:27:36;;;;;;;11.93;2.97;;;;;;;;;;5043378;28;20024;-66
2022/09/25 05:30:02;;;;;;;;;;;;;;;;;;5042068;28;20471;-66
2022/09/25 05:32:29;;;;;;;11.77;3.10;;;;;;;;;;5047481;28;20744;-66
2022/09/25 05:34:56;;;;;;;12.18;3.10;;;;;;;;;;5043001;28;20105;-66
2022/09/25 05:37:23;;;;;;;13.23;3.40;;;;;;;;;;5038692;28;20498;-66
2022/09/25 05:39:49;;;;;;;14.82;3.60;;;;;;;;;;5041764;28;20040;-66
2022/09/25 05:42:18;;;;;;;;;;;;;;;;;;5037739;28;20561;-66
2022/09/25 05:44:44;;;;;;;15.80;3.58;;;;;;;;;;5040292;28;19919;-66
2022/09/25 05:47:10;;;;;;;;;;;;;;;;;;5039393;28;20070;-66
2022/09/25 05:49:36;;;;;;;13.70;3.20;;;;;;;;;;5037434;28;19912;-66
2022/09/25 05:52:02;;;;;;;;;;;;;;;;;;5039899;28;20467;-65
2022/09/25 05:54:29;;;;;;;12.88;2.72;;;;;;;;;;5035865;28;20646;-68
2022/09/25 05:56:55;;;;;;;15.00;3.22;;;;;;;;;;5040626;28;20078;-68
2022/09/25 05:59:21;;;;;;;15.27;3.30;;;;;;;;;;5037723;28;20012;-66
2022/09/25 06:01:48;;;;;;;15.05;3.75;;;;;;;;;;5041049;28;20862;-66
2022/09/25 06:04:14;;;;;;;16.58;3.50;;;;;;;;;;5038600;28;20033;-65
2022/09/25 06:06:40;;;;;;;;;;;;;;;;;;5043655;28;20021;-66
2022/09/25 06:09:06;;;;;;;13.43;3.35;;;;;;;;;;5041093;28;19986;-65
2022/09/25 06:11:32;;;;;;;;;;;;;;;;;;5039214;28;20195;-65
2022/09/25 06:13:58;;;;;;;13.48;3.72;;;;;;;;;;5040094;28;19912;-68
2022/09/25 06:16:24;;;;;;;;;;;;;;;;;;5035812;28;20067;-65
2022/09/25 06:18:51;;;;;;;14.97;3.07;;;;;;;;;;5040676;28;20265;-66
2022/09/25 06:21:17;;;;;;;13.48;3.55;;;;;;;;;;5036727;28;20078;-66
2022/09/25 06:23:44;;;;;;;11.80;2.85;;;;;;;;;;5041756;28;20025;-66
2022/09/25 06:26:11;;;;;;;16.48;3.17;;;;;;;;;;5034527;28;20479;-66
2022/09/25 06:28:37;;;;;;;15.25;2.97;;;;;;;;;;5041985;28;20450;-67
2022/09/25 06:31:03;;;;;;;;;;;;;;;;;;5042824;28;20055;-65
2022/09/25 06:33:29;;;;;;;13.88;3.50;;;;;;;;;;5037781;28;20430;-65
2022/09/25 06:35:56;;;;;;;13.68;3.35;;;;;;;;;;5042929;28;20039;-66
2022/09/25 06:38:22;;;;;;;;;;;;;;;;;;5039060;28;20110;-68
2022/09/25 06:40:48;;;;;;;11.45;3.13;;;;;;;;;;5042282;28;19920;-66
2022/09/25 06:43:14;;;;;;;;;;;;;;;;;;5038762;28;20455;-66
2022/09/25 06:45:41;;;;;;;12.75;3.00;;;;;;;;;;5051471;28;20364;-67
2022/09/25 06:48:11;;;;;;;14.23;3.25;;;;;;;;;;5040924;28;20543;-66
2022/09/25 06:50:41;;;;;;;15.18;2.97;;;;;;;;;;5038536;28;20025;-67
2022/09/25 06:53:07;;;;;;;11.90;2.85;;;;;;;;;;5039911;28;20513;-67
2022/09/25 06:55:33;;;;;;;12.82;3.30;;;;;;;;;;5043799;28;20081;-67
2022/09/25 06:58:00;;;;;;;13.82;4.22;;;;;;;;;;5035668;28;20143;-67
2022/09/25 07:00:26;;;;;;;17.15;5.45;;;;;;;;;;5037274;28;20120;-66
2022/09/25 07:05:37;;;;;;;13.85;2.97;;;;;;;;;;5037735;28;20031;-67
2022/09/25 07:08:03;;;;;;;;;;;;;;;;;;5041310;28;20066;-66
2022/09/25 07:10:29;;;;;;;16.80;3.40;;;;;;;;;;5034621;28;19983;-66
2022/09/25 07:12:56;;;;;;;14.68;3.20;;;;;;;;;;5041373;28;20437;-67
2022/09/25 07:15:22;;;;;;;15.40;3.47;;;;;;;;;;5040214;28;20085;-66
2022/09/25 07:17:48;;;;;;;;;;;;;;;;;;5040438;28;20052;-67
2022/09/25 07:20:15;;;;;;;9.60;2.40;;;;;;;;;;5039452;28;19924;-68
2022/09/25 07:22:42;;;;;;;13.50;3.15;;;;;;;;;;5042692;28;20024;-66
2022/09/25 07:25:09;;;;;;;11.90;2.85;;;;;;;;;;5041448;28;20013;-66
2022/09/25 07:27:35;;;;;;;13.10;3.05;;;;;;;;;;5041239;28;20145;-68
2022/09/25 07:30:02;;;;;;;15.13;3.15;;;;;;;;;;5043563;28;20085;-67
2022/09/25 07:32:28;;;;;;;11.27;2.50;;;;;;;;;;5034729;28;21563;-66
2022/09/25 07:34:54;;;;;;;12.82;2.63;;;;;;;;;;5040432;28;20094;-66
2022/09/25 07:37:20;;;;;;;15.13;2.85;;;;;;;;;;5036420;28;20068;-67
2022/09/25 07:39:46;;;;;;;;;;;;;;;;;;5040202;28;20031;-66
2022/09/25 07:42:12;;;;;;;14.50;3.08;;;;;;;;;;5037156;28;19920;-66
2022/09/25 07:44:38;;;;;;;14.77;3.20;;;;;;;;;;5033317;28;20855;-68
2022/09/25 07:47:07;;;;;;;13.98;2.97;;;;;;;;;;5043210;28;20031;-66
2022/09/25 07:49:34;;;;;;;12.93;2.83;;;;;;;;;;5038801;28;20071;-66
2022/09/25 07:52:00;;;;;;;13.40;3.13;;;;;;;;;;5040860;28;20040;-66
2022/09/25 07:54:26;;;;;;;13.45;2.90;;;;;;;;;;5036332;28;20044;-66
2022/09/25 07:56:53;;;;;;;14.45;2.60;;;;;;;;;;5043159;28;20098;-66
2022/09/25 07:59:19;;;;;;;11.40;2.50;;;;;;;;;;5035140;28;20064;-68
2022/09/25 08:01:45;;;;;;;14.07;2.72;;;;;;;;;;5041374;28;20036;-68
2022/09/25 08:04:11;;;;;;;11.13;2.53;;;;;;;;;;5035382;28;20491;-68
2022/09/25 08:06:37;;;;;;;13.95;3.17;;;;;;;;;;5039601;28;20093;-68
2022/09/25 08:09:04;;;;;;;13.52;2.47;;;;;;;;;;5038448;28;20024;-68
2022/09/25 08:11:30;;;;;;;14.23;3.00;;;;;;;;;;5039294;28;20252;-67
2022/09/25 08:13:56;;;;;;;12.70;2.90;;;;;;;;;;5043442;28;20024;-67
2022/09/25 08:16:23;;;;;;;10.40;2.75;;;;;;;;;;5039746;28;20213;-68
2022/09/25 08:18:49;;;;;;;12.45;2.67;;;;;;;;;;5040531;28;20040;-67
2022/09/25 08:21:17;;;;;;;14.00;3.30;;;;;;;;;;5035388;28;20398;-68
2022/09/25 08:23:44;;;;;;;15.20;2.75;;;;;;;;;;5038767;28;20056;-67
2022/09/25 08:26:10;;;;;;;12.88;2.72;;;;;;;;;;5034184;28;20033;-67
2022/09/25 08:28:36;;;;;;;10.93;2.72;;;;;;;;;;5038752;28;20028;-67
2022/09/25 08:31:03;;;;;;;13.18;3.10;;;;;;;;;;5040130;28;20040;-66
2022/09/25 08:33:29;;;;;;;12.02;2.85;;;;;;;;;;5034563;28;20051;-67
2022/09/25 08:35:56;;;;;;;11.30;2.92;;;;;;;;;;5042979;28;20032;-67
2022/09/25 08:38:26;;;;;;;10.15;2.60;;;;;;;;;;5040002;28;20071;-67
2022/09/25 08:41:04;;;;;;;13.15;2.55;;;;;;;;;;5042934;28;20668;-68
2022/09/25 08:43:32;;;;;;;13.02;3.50;;;;;;;;;;5040154;28;20024;-67
2022/09/25 08:49:02;;;;;;;15.13;3.15;;;;;;;;;;5029782;28;20040;-68
2022/09/25 08:51:48;;;;;;;18.00;3.40;;;;;;;;;;5033550;28;20262;-68
2022/09/25 08:54:23;;;;;;;13.45;3.05;;;;;;;;;;5030080;28;20120;-67
2022/09/25 08:56:51;;;;;;;15.80;3.10;;;;;;;;;;5039321;28;20089;-67
2022/09/25 08:59:37;;;;;;;13.30;2.85;;;;;;;;;;5034626;28;20816;-67
2022/09/25 09:02:10;;;;;;;14.60;3.05;;;;;;;;;;5037065;28;20212;-67
2022/09/25 09:04:47;;;;;;;12.00;2.72;;;;;;;;;;5034885;28;20039;-67
2022/09/25 09:07:20;;;;;;;12.98;2.88;;;;;;;;;;5035835;28;20028;-66
2022/09/25 09:09:50;;;;;;;14.82;3.40;;;;;;;;;;5030955;28;20044;-68
2022/09/25 09:12:31;;;;;;;11.38;2.50;;;;;;;;;;5032036;28;20021;-67
2022/09/25 09:15:05;;;;;;;11.52;3.13;;;;;;;;;;5038689;28;20257;-67
2022/09/25 09:17:35;;;;;;;14.35;2.45;;;;;;;;;;5035701;28;20055;-68
2022/09/25 09:20:12;;;;;;;14.48;3.30;;;;;;;;;;5035560;28;20098;-67
2022/09/25 09:22:41;;;;;;;14.07;3.70;;;;;;;;;;5034847;28;20550;-67
2022/09/25 09:25:16;;;;;;;14.18;3.40;;;;;;;;;;5035756;28;20032;-67
2022/09/25 09:27:57;;;;;;;12.15;2.90;;;;;;;;;;5037552;28;20773;-66
2022/09/25 09:30:26;;;;;;;14.63;3.40;;;;;;;;;;5032182;28;20286;-68
2022/09/25 09:32:55;;;;;;;14.43;3.35;;;;;;;;;;5034197;28;20020;-66
2022/09/25 09:35:21;;;;;;;12.15;3.00;;;;;;;;;;5033184;28;20040;-66
2022/09/25 09:38:14;;;;;;;10.40;2.55;;;;;;;;;;5039030;28;20113;-67
2022/09/25 09:40:59;;;;;;;12.82;2.85;;;;;;;;;;5030316;28;20353;-68
2022/09/25 09:43:36;;;;;;;15.45;3.65;;;;;;;;;;5034442;28;20074;-67
2022/09/25 09:46:02;;;;;;;12.32;3.10;;;;;;;;;;5036784;28;20838;-67
2022/09/25 09:48:38;;;;;;;14.45;2.85;;;;;;;;;;5036826;28;20068;-67
2022/09/25 09:51:10;;;;;;;16.40;3.27;;;;;;;;;;5039387;28;20079;-67
2022/09/25 09:53:45;;;;;;;11.82;3.42;;;;;;;;;;5041328;28;20422;-67
2022/09/25 09:56:14;;;;;;;11.82;3.28;;;;;;;;;;5039675;28;20064;-67
2022/09/25 09:58:40;;;;;;;14.80;2.90;;;;;;;;;;5041283;28;20064;-67
2022/09/25 10:01:06;;;;;;;11.68;2.63;;;;;;;;;;5043859;28;20551;-66
2022/09/25 10:03:35;;;;;;;14.95;2.80;;;;;;;;;;5037322;28;20024;-66
2022/09/25 10:06:03;;;;;;;12.00;2.38;;;;;;;;;;5038852;28;20020;-66
2022/09/25 10:08:29;;;;;;;12.75;2.58;;;;;;;;;;5039158;28;20302;-66
2022/09/25 10:10:58;;;;;;;12.63;2.92;;;;;;;;;;5044219;28;20497;-67
2022/09/25 10:13:24;;;;;;;12.23;2.65;;;;;;;;;;5038498;28;20358;-66
2022/09/25 10:15:53;;;;;;;15.00;2.90;;;;;;;;;;5040652;28;20082;-66
2022/09/25 10:18:20;;;;;;;14.90;3.60;;;;;;;;;;5037128;28;20052;-67
2022/09/25 10:21:03;;;;;;;14.75;3.00;;;;;;;;;;5041022;28;20036;-68
2022/09/25 10:23:48;;;;;;;13.10;3.00;;;;;;;;;;5038131;28;20028;-66
2022/09/25 10:26:24;;;;;;;10.73;2.47;;;;;;;;;;5035751;28;20065;-67
2022/09/25 10:28:51;;;;;;;11.10;3.53;;;;;;;;;;5037279;28;20029;-68
2022/09/25 10:31:20;;;;;;;10.70;2.97;;;;;;;;;;5037377;28;20032;-68
2022/09/25 10:33:58;;;;;;;12.10;3.20;;;;;;;;;;5031266;28;20409;-67
2022/09/25 10:36:31;;;;;;;10.55;2.63;;;;;;;;;;5037971;28;20028;-68
2022/09/25 10:38:58;;;;;;;11.65;2.88;;;;;;;;;;5035158;28;20396;-67
2022/09/25 10:41:24;;;;;;;13.32;2.92;;;;;;;;;;5037992;28;20197;-67
2022/09/25 10:43:52;;;;;;;13.52;2.65;;;;;;;;;;5032884;28;20036;-67
2022/09/25 10:50:09;;;;;;;10.85;2.70;;;;;;;;;;5035898;28;20533;-67
2022/09/25 10:52:04;;;;;;;11.13;2.85;;;;;;;;;;5037409;28;20043;-67
2022/09/25 10:54:30;;;;;;;12.73;2.97;;;;;;;;;;5032116;28;20036;-67
2022/09/25 10:56:57;;;;;;;15.25;2.65;;;;;;;;;;5033527;28;20031;-67
2022/09/25 10:59:23;;;;;;;12.77;2.42;;;;;;;;;;5032055;28;20041;-67
2022/09/25 11:01:50;;;;;;;12.55;2.58;;;;;;;;;;5038039;28;20123;-69
2022/09/25 11:04:19;;;;;;;12.43;3.53;;;;;;;;;;5034627;28;20028;-67
2022/09/25 11:06:47;;;;;;;10.45;2.75;;;;;;;;;;5039062;28;20032;-67
2022/09/25 11:09:13;;;;;;;12.32;2.70;;;;;;;;;;5032553;28;20117;-66
2022/09/25 11:11:40;;;;;;;13.65;2.80;;;;;;;;;;5038288;28;20040;-66
2022/09/25 11:14:21;;;;;;;11.48;2.90;;;;;;;;;;5036408;28;20116;-66
2022/09/25 11:16:54;;;;;;;12.55;2.42;;;;;;;;;;5039370;28;20093;-66
2022/09/25 11:19:31;;;;;;;11.45;2.42;;;;;;;;;;5034804;28;20845;-67
2022/09/25 11:21:58;;;;;;;15.57;2.78;;;;;;;;;;5042226;28;20032;-66
2022/09/25 11:24:24;;;;;;;10.63;2.70;;;;;;;;;;5037951;28;20442;-66
2022/09/25 11:26:50;;;;;;;9.70;2.60;;;;;;;;;;5043487;28;20420;-67
2022/09/25 11:29:23;;;;;;;8.98;2.50;;;;;;;;;;5038904;28;20386;-67
2022/09/25 11:32:12;;;;;;;13.18;2.85;;;;;;;;;;5045437;28;20551;-67
2022/09/25 11:34:41;;;;;;;12.43;2.85;;;;;;;;;;5039378;28;20564;-67
2022/09/25 11:37:08;;;;;;;11.75;2.80;;;;;;;;;;5039871;28;20067;-67
2022/09/25 11:42:35;;;;;;;11.88;3.42;;;;;;;;;;5037759;28;20097;-67
2022/09/25 11:45:01;;;;;;;11.88;2.88;;;;;;;;;;5039750;28;20024;-67
2022/09/25 11:47:32;;;;;;;12.65;3.15;;;;;;;;;;5037065;28;20025;-67
2022/09/25 11:50:01;;;;;;;14.45;3.38;;;;;;;;;;5041251;28;20032;-67
2022/09/25 11:52:27;;;;;;;11.80;2.70;;;;;;;;;;5035299;28;20020;-67
2022/09/25 11:54:59;;;;;;;12.40;2.88;;;;;;;;;;5040039;28;20032;-67
2022/09/25 11:57:28;;;;;;;14.55;3.83;;;;;;;;;;5035096;28;20052;-67
2022/09/25 12:00:08;;;;;;;12.10;3.22;;;;;;;;;;5037599;28;20047;-67
2022/09/25 12:02:39;;;;;;;14.02;3.47;;;;;;;;;;5037323;28;20554;-67
2022/09/25 12:05:05;;;;;;;13.98;3.17;;;;;;;;;;5040338;28;20060;-67
2022/09/25 12:07:39;;;;;;;10.95;2.75;;;;;;;;;;5038297;28;20378;-67
2022/09/25 12:10:24;;;;;;;10.38;2.63;;;;;;;;;;5043307;28;20505;-67
2022/09/25 12:12:59;;;;;;;11.40;2.72;;;;;;;;;;5042088;28;20033;-67
2022/09/25 12:15:44;;;;;;;10.33;2.50;;;;;;;;;;5036707;28;20119;-67
2022/09/25 12:18:15;;;;;;;14.23;3.00;;;;;;;;;;5036054;28;20286;-67
2022/09/25 12:21:00;;;;;;;11.18;2.95;;;;;;;;;;5033921;28;20032;-67
2022/09/25 12:23:35;;;;;;;10.40;2.70;;;;;;;;;;5034688;28;20570;-67
2022/09/25 12:26:02;;;;;;;15.33;2.77;;;;;;;;;;5040145;28;20013;-67
2022/09/25 12:28:28;;;;;;;11.75;3.05;;;;;;;;;;5038698;28;20730;-67
2022/09/25 12:31:04;;;;;;;11.88;3.00;;;;;;;;;;5037274;28;20506;-67
2022/09/25 12:34:03;;;;;;;14.18;4.10;;;;;;;;;;5036846;28;20374;-67
2022/09/25 12:36:53;;;;;;;11.45;3.00;;;;;;;;;;5032133;28;20041;-67
2022/09/25 12:39:28;;;;;;;12.30;3.22;;;;;;;;;;5028291;28;20507;-67
2022/09/25 12:42:01;;;;;;;12.77;4.07;;;;;;;;;;5017947;28;20506;-67
2022/09/25 12:44:30;;;;;;;13.60;3.03;;;;;;;;;;5020743;28;20119;-67
2022/09/25 12:47:16;;;;;;;10.38;3.65;;;;;;;;;;5029899;28;20238;-67
2022/09/25 12:49:48;;;;;;;12.85;4.07;;;;;;;;;;5018329;28;20182;-67
2022/09/25 12:52:24;;;;;;;10.85;3.72;;;;;;;;;;5031039;28;20610;-67
2022/09/25 12:54:55;;;;;;;15.27;5.20;;;;;;;;;;5013628;28;20472;-67
2022/09/25 12:57:37;;;;;;;11.18;3.30;;;;;;;;;;5022038;28;20042;-67
2022/09/25 13:00:08;;;;;;;10.32;2.70;;;;;;;;;;5026834;28;20481;-67
2022/09/25 13:02:47;;;;;;;12.15;2.90;;;;;;;;;;5028038;28;20594;-66
2022/09/25 13:05:19;;;;;;;11.68;3.10;;;;;;;;;;5027103;28;20406;-67
2022/09/25 13:07:54;;;;;;;9.88;3.40;;;;;;;;;;5028159;28;20032;-66
2022/09/25 13:10:20;;;;;;;11.00;2.45;;;;;;;;;;5027715;28;20175;-66
2022/09/25 13:12:48;;;;;;;11.10;2.25;;;;;;;;;;5030200;28;20086;-66
2022/09/25 13:15:22;;;;;;;9.98;2.75;;;;;;;;;;5032754;28;20606;-67
2022/09/25 13:17:49;;;;;;;10.85;2.83;;;;;;;;;;5034589;28;20166;-67
2022/09/25 13:20:27;;;;;;;8.88;2.60;;;;;;;;;;5027520;28;20953;-66
2022/09/25 13:23:02;;;;;;;9.13;2.08;;;;;;;;;;5034866;28;20566;-67
2022/09/25 13:25:29;;;;;;;9.60;2.22;;;;;;;;;;5038795;28;21083;-67
2022/09/25 13:27:56;;;;;;;10.57;2.20;;;;;;;;;;5039703;28;20094;-67
2022/09/25 13:30:24;;;;;;;8.80;2.25;;;;;;;;;;5037547;28;20029;-67
2022/09/25 13:32:51;;;;;;;10.88;2.35;;;;;;;;;;5039024;28;20040;-67
2022/09/25 13:35:19;;;;;;;13.00;2.22;;;;;;;;;;5036997;28;20036;-67
2022/09/25 13:37:45;;;;;;;9.35;2.20;;;;;;;;;;5040155;28;20016;-67
2022/09/25 13:40:45;;;;;;;9.77;2.10;;;;;;;;;;5036908;28;20097;-67
2022/09/25 13:43:25;;;;;;;8.50;2.20;;;;;;;;;;5036823;28;20754;-67
2022/09/25 13:46:12;;;;;;;9.27;2.40;;;;;;;;;;5040989;28;20442;-67
2022/09/25 13:48:39;;;;;;;8.85;2.30;;;;;;;;;;5037692;28;20433;-67
2022/09/25 13:51:17;;;;;;;11.05;2.10;;;;;;;;;;5038741;28;20016;-67
2022/09/25 13:54:02;;;;;;;12.55;2.50;;;;;;;;;;5039859;28;20555;-66
2022/09/25 13:56:45;;;;;;;13.27;2.90;;;;;;;;;;5037826;28;20024;-66
2022/09/25 13:59:11;;;;;;;10.18;2.40;;;;;;;;;;5038564;28;20036;-68
2022/09/25 14:01:48;;;;;;;9.55;2.08;;;;;;;;;;5039120;28;20268;-68
2022/09/25 14:04:14;;;;;;;10.45;2.28;;;;;;;;;;5035300;28;20071;-68
2022/09/25 14:06:41;;;;;;;10.52;2.25;;;;;;;;;;5040215;28;20568;-68
2022/09/25 14:09:15;;;;;;;10.25;2.08;;;;;;;;;;5039187;28;20031;-68
2022/09/25 14:11:43;;;;;;;11.43;2.38;;;;;;;;;;5036347;28;20063;-68
2022/09/25 14:14:12;;;;;;;9.23;2.20;;;;;;;;;;5042069;28;20135;-68
2022/09/25 14:16:46;;;;;;;11.85;2.20;;;;;;;;;;5032641;28;20032;-68
2022/09/25 14:19:17;;;;;;;10.30;2.50;;;;;;;;;;5026989;28;21048;-68
2022/09/25 14:21:44;;;;;;;8.30;1.92;;;;;;;;;;5034243;28;20541;-66
2022/09/25 14:24:21;;;;;;;8.95;2.10;;;;;;;;;;5037037;28;20633;-69
2022/09/25 14:26:47;;;;;;;9.55;2.33;;;;;;;;;;5032872;28;20447;-67
2022/09/25 14:29:18;;;;;;;11.75;2.42;;;;;;;;;;5033939;28;20059;-67
2022/09/25 14:32:11;;;;;;;10.93;2.53;;;;;;;;;;5034038;28;20165;-68
2022/09/25 14:34:43;;;;;;;11.73;2.40;;;;;;;;;;5042086;28;20689;-68
2022/09/25 14:37:24;;;;;;;11.52;2.60;;;;;;;;;;5037235;28;20032;-67
2022/09/25 14:40:10;;;;;;;9.27;2.33;;;;;;;;;;5040741;28;20032;-66
2022/09/25 14:42:42;;;;;;;9.98;2.20;;;;;;;;;;5034024;28;20025;-68
2022/09/25 14:45:27;;;;;;;11.27;2.60;;;;;;;;;;5039601;28;20446;-67
2022/09/25 14:47:56;;;;;;;10.93;2.50;;;;;;;;;;5038149;28;20052;-67
2022/09/25 14:50:25;;;;;;;10.48;1.95;;;;;;;;;;5035867;28;20036;-67
2022/09/25 14:52:56;;;;;;;9.02;2.10;;;;;;;;;;5038045;28;20033;-67
2022/09/25 14:55:25;;;;;;;11.40;2.38;;;;;;;;;;5034018;28;20036;-67
2022/09/25 14:57:52;;;;;;;8.38;2.00;;;;;;;;;;5037805;28;20033;-67
2022/09/25 15:00:23;;;;;;;10.25;2.30;;;;;;;;;;5032879;28;20530;-67
2022/09/25 15:02:50;;;;;;;8.38;2.20;;;;;;;;;;5036785;28;20719;-68
2022/09/25 15:05:16;;;;;;;10.98;2.40;;;;;;;;;;5035687;28;20036;-67
2022/09/25 15:07:43;;;;;;;8.40;2.00;;;;;;;;;;5034407;28;20126;-68
2022/09/25 15:10:28;;;;;;;9.38;2.20;;;;;;;;;;5035929;28;20079;-68
2022/09/25 15:12:54;;;;;;;12.40;2.53;;;;;;;;;;5037858;28;20024;-67
2022/09/25 15:15:21;;;;;;;8.13;2.20;;;;;;;;;;5030902;28;20029;-68
2022/09/25 15:17:48;;;;;;;8.38;2.20;;;;;;;;;;5036259;28;20601;-66